sensor_id;sensor_type;location;lat;lon;timestamp;temperature;humidity
18717;DHT22;9487;50.892;6.906;2023-09-18T00:01:20;21.90;99.90
18717;DHT22;9487;50.892;6.906;2023-09-18T00:03:47;21.80;99.90
18717;DHT22;9487;50.892;6.906;2023-09-18T00:06:14;21.80;99.90
18717;DHT22;9487;50.892;6.906;2023-09-18T00:08:41;21.80;99.90
18717;DHT22;9487;50.892;6.906;2023-09-18T00:11:08;21.70;99.90
18717;DHT22;9487;50.892;6.906;2023-09-18T00:13:38;21.70;99.90
18717;DHT22;9487;50.892;6.906;2023-09-18T00:16:05;21.70;99.90
18717;DHT22;9487;50.892;6.906;2023-09-18T00:18:32;21.70;99.90
18717;DHT22;9487;50.892;6.906;2023-09-18T00:20:59;21.70;99.90
18717;DHT22;9487;50.892;6.906;2023-09-18T00:23:26;21.70;99.90
18717;DHT22;9487;50.892;6.906;2023-09-18T00:25:53;21.70;99.90
18717;DHT22;9487;50.892;6.906;2023-09-18T00:28:20;21.70;99.90
18717;DHT22;9487;50.892;6.906;2023-09-18T00:30:49;21.70;99.90
18717;DHT22;9487;50.892;6.906;2023-09-18T00:33:17;21.70;99.90
18717;DHT22;9487;50.892;6.906;2023-09-18T00:35:46;21.70;99.90
18717;DHT22;9487;50.892;6.906;2023-09-18T00:38:13;21.70;99.90
18717;DHT22;9487;50.892;6.906;2023-09-18T00:40:41;21.70;99.90
18717;DHT22;9487;50.892;6.906;2023-09-18T00:43:08;21.70;99.90
18717;DHT22;9487;50.892;6.906;2023-09-18T00:45:39;21.70;99.90
18717;DHT22;9487;50.892;6.906;2023-09-18T00:48:08;21.70;99.90
18717;DHT22;9487;50.892;6.906;2023-09-18T00:50:36;21.60;99.90
18717;DHT22;9487;50.892;6.906;2023-09-18T00:53:04;21.60;99.90
18717;DHT22;9487;50.892;6.906;2023-09-18T00:55:32;21.50;99.90
18717;DHT22;9487;50.892;6.906;2023-09-18T00:58:00;21.50;99.90
18717;DHT22;9487;50.892;6.906;2023-09-18T01:00:27;21.40;99.90
18717;DHT22;9487;50.892;6.906;2023-09-18T01:02:55;21.40;99.90
18717;DHT22;9487;50.892;6.906;2023-09-18T01:05:24;21.40;99.90
18717;DHT22;9487;50.892;6.906;2023-09-18T01:07:51;21.40;99.90
18717;DHT22;9487;50.892;6.906;2023-09-18T01:10:19;21.40;99.90
18717;DHT22;9487;50.892;6.906;2023-09-18T01:12:55;21.50;99.90
18717;DHT22;9487;50.892;6.906;2023-09-18T01:15:29;21.50;99.90
18717;DHT22;9487;50.892;6.906;2023-09-18T01:17:57;21.50;99.90
18717;DHT22;9487;50.892;6.906;2023-09-18T01:20:25;21.50;99.90
18717;DHT22;9487;50.892;6.906;2023-09-18T01:22:55;21.50;99.90
18717;DHT22;9487;50.892;6.906;2023-09-18T01:25:22;21.50;99.90
18717;DHT22;9487;50.892;6.906;2023-09-18T01:27:49;21.50;99.90
18717;DHT22;9487;50.892;6.906;2023-09-18T01:30:17;21.50;99.90
18717;DHT22;9487;50.892;6.906;2023-09-18T01:32:44;21.60;99.90
18717;DHT22;9487;50.892;6.906;2023-09-18T01:35:13;21.50;63.20
18717;DHT22;9487;50.892;6.906;2023-09-18T01:37:41;21.40;86.60
18717;DHT22;9487;50.892;6.906;2023-09-18T01:40:10;21.50;93.00
18717;DHT22;9487;50.892;6.906;2023-09-18T01:42:37;21.40;99.90
18717;DHT22;9487;50.892;6.906;2023-09-18T01:45:06;21.40;99.90
18717;DHT22;9487;50.892;6.906;2023-09-18T01:47:33;21.40;95.90
18717;DHT22;9487;50.892;6.906;2023-09-18T01:50:03;21.50;61.50
18717;DHT22;9487;50.892;6.906;2023-09-18T01:52:31;21.50;28.00
18717;DHT22;9487;50.892;6.906;2023-09-18T01:55:01;21.50;52.00
18717;DHT22;9487;50.892;6.906;2023-09-18T01:57:31;21.40;65.70
18717;DHT22;9487;50.892;6.906;2023-09-18T01:59:58;21.40;92.00
18717;DHT22;9487;50.892;6.906;2023-09-18T02:02:24;21.40;92.80
18717;DHT22;9487;50.892;6.906;2023-09-18T02:04:51;21.40;99.00
18717;DHT22;9487;50.892;6.906;2023-09-18T02:07:18;21.30;99.90
18717;DHT22;9487;50.892;6.906;2023-09-18T02:09:45;21.30;99.90
18717;DHT22;9487;50.892;6.906;2023-09-18T02:12:12;21.40;99.90
18717;DHT22;9487;50.892;6.906;2023-09-18T02:14:44;21.30;99.90
18717;DHT22;9487;50.892;6.906;2023-09-18T02:17:11;21.20;99.90
18717;DHT22;9487;50.892;6.906;2023-09-18T02:19:38;21.20;99.90
18717;DHT22;9487;50.892;6.906;2023-09-18T02:22:05;21.20;99.90
18717;DHT22;9487;50.892;6.906;2023-09-18T02:24:34;21.30;99.90
18717;DHT22;9487;50.892;6.906;2023-09-18T02:27:03;21.30;99.90
18717;DHT22;9487;50.892;6.906;2023-09-18T02:29:30;21.30;99.90
18717;DHT22;9487;50.892;6.906;2023-09-18T02:31:59;21.40;99.90
18717;DHT22;9487;50.892;6.906;2023-09-18T02:34:26;21.50;99.90
18717;DHT22;9487;50.892;6.906;2023-09-18T02:36:53;21.50;99.90
18717;DHT22;9487;50.892;6.906;2023-09-18T02:39:20;21.40;99.90
18717;DHT22;9487;50.892;6.906;2023-09-18T02:41:47;21.40;99.90
18717;DHT22;9487;50.892;6.906;2023-09-18T02:44:14;21.40;99.90
18717;DHT22;9487;50.892;6.906;2023-09-18T02:46:42;21.40;99.90
18717;DHT22;9487;50.892;6.906;2023-09-18T02:49:10;21.40;99.90
18717;DHT22;9487;50.892;6.906;2023-09-18T02:51:37;21.50;99.90
18717;DHT22;9487;50.892;6.906;2023-09-18T02:54:04;21.40;99.90
18717;DHT22;9487;50.892;6.906;2023-09-18T02:56:31;21.40;99.90
18717;DHT22;9487;50.892;6.906;2023-09-18T02:58:58;21.40;99.90
18717;DHT22;9487;50.892;6.906;2023-09-18T03:01:25;21.40;99.90
18717;DHT22;9487;50.892;6.906;2023-09-18T03:04:07;21.30;1.00
18717;DHT22;9487;50.892;6.906;2023-09-18T03:06:38;21.10;1.00
18717;DHT22;9487;50.892;6.906;2023-09-18T03:09:05;21.20;1.00
18717;DHT22;9487;50.892;6.906;2023-09-18T03:11:32;21.20;1.00
18717;DHT22;9487;50.892;6.906;2023-09-18T03:13:59;21.10;1.00
18717;DHT22;9487;50.892;6.906;2023-09-18T03:16:25;21.10;1.00
18717;DHT22;9487;50.892;6.906;2023-09-18T03:18:53;21.30;1.00
18717;DHT22;9487;50.892;6.906;2023-09-18T03:21:19;21.20;1.00
18717;DHT22;9487;50.892;6.906;2023-09-18T03:23:47;21.20;1.00
18717;DHT22;9487;50.892;6.906;2023-09-18T03:26:14;21.20;1.00
18717;DHT22;9487;50.892;6.906;2023-09-18T03:28:41;21.20;1.00
18717;DHT22;9487;50.892;6.906;2023-09-18T03:31:08;21.20;1.00
18717;DHT22;9487;50.892;6.906;2023-09-18T03:33:35;21.30;1.00
18717;DHT22;9487;50.892;6.906;2023-09-18T03:36:02;21.30;1.00
18717;DHT22;9487;50.892;6.906;2023-09-18T03:38:30;21.20;1.00
18717;DHT22;9487;50.892;6.906;2023-09-18T03:41:00;21.10;1.00
18717;DHT22;9487;50.892;6.906;2023-09-18T03:43:27;21.10;1.00
18717;DHT22;9487;50.892;6.906;2023-09-18T03:45:54;21.20;99.90
18717;DHT22;9487;50.892;6.906;2023-09-18T03:48:21;21.20;99.90
18717;DHT22;9487;50.892;6.906;2023-09-18T03:50:48;21.20;99.90
18717;DHT22;9487;50.892;6.906;2023-09-18T03:53:15;21.20;99.90
18717;DHT22;9487;50.892;6.906;2023-09-18T03:55:43;21.30;99.90
18717;DHT22;9487;50.892;6.906;2023-09-18T03:58:11;21.20;99.90
18717;DHT22;9487;50.892;6.906;2023-09-18T04:00:38;21.10;99.90
18717;DHT22;9487;50.892;6.906;2023-09-18T04:03:05;21.00;1.00
18717;DHT22;9487;50.892;6.906;2023-09-18T04:05:32;20.90;1.00
18717;DHT22;9487;50.892;6.906;2023-09-18T04:07:59;20.90;1.00
18717;DHT22;9487;50.892;6.906;2023-09-18T04:10:26;20.90;1.00
18717;DHT22;9487;50.892;6.906;2023-09-18T04:12:53;21.00;1.00
18717;DHT22;9487;50.892;6.906;2023-09-18T04:15:22;21.00;1.00
18717;DHT22;9487;50.892;6.906;2023-09-18T04:17:49;21.00;1.00
18717;DHT22;9487;50.892;6.906;2023-09-18T04:20:16;20.90;1.00
18717;DHT22;9487;50.892;6.906;2023-09-18T04:22:46;20.90;1.00
18717;DHT22;9487;50.892;6.906;2023-09-18T04:25:15;20.90;1.00
18717;DHT22;9487;50.892;6.906;2023-09-18T04:27:42;20.80;1.00
18717;DHT22;9487;50.892;6.906;2023-09-18T04:30:10;20.90;1.00
18717;DHT22;9487;50.892;6.906;2023-09-18T04:32:39;20.90;1.00
18717;DHT22;9487;50.892;6.906;2023-09-18T04:35:07;20.90;99.90
18717;DHT22;9487;50.892;6.906;2023-09-18T04:37:36;20.90;99.90
18717;DHT22;9487;50.892;6.906;2023-09-18T04:40:05;20.90;99.90
18717;DHT22;9487;50.892;6.906;2023-09-18T04:42:35;20.90;99.90
18717;DHT22;9487;50.892;6.906;2023-09-18T04:45:02;20.90;99.90
18717;DHT22;9487;50.892;6.906;2023-09-18T04:47:29;20.80;99.90
18717;DHT22;9487;50.892;6.906;2023-09-18T04:49:57;20.80;1.00
18717;DHT22;9487;50.892;6.906;2023-09-18T04:52:24;20.90;99.90
18717;DHT22;9487;50.892;6.906;2023-09-18T04:54:50;20.80;99.90
18717;DHT22;9487;50.892;6.906;2023-09-18T04:57:17;20.80;1.00
18717;DHT22;9487;50.892;6.906;2023-09-18T04:59:46;20.70;1.00
18717;DHT22;9487;50.892;6.906;2023-09-18T05:02:12;20.70;1.00
18717;DHT22;9487;50.892;6.906;2023-09-18T05:04:39;20.70;1.00
18717;DHT22;9487;50.892;6.906;2023-09-18T05:07:07;20.70;1.00
18717;DHT22;9487;50.892;6.906;2023-09-18T05:09:34;20.70;1.00
18717;DHT22;9487;50.892;6.906;2023-09-18T05:12:04;20.70;1.00
18717;DHT22;9487;50.892;6.906;2023-09-18T05:14:34;20.70;1.00
18717;DHT22;9487;50.892;6.906;2023-09-18T05:17:01;20.70;1.00
18717;DHT22;9487;50.892;6.906;2023-09-18T05:19:28;20.70;1.00
18717;DHT22;9487;50.892;6.906;2023-09-18T05:21:54;20.70;1.00
18717;DHT22;9487;50.892;6.906;2023-09-18T05:24:23;20.70;1.00
18717;DHT22;9487;50.892;6.906;2023-09-18T05:26:52;20.80;1.00
18717;DHT22;9487;50.892;6.906;2023-09-18T05:29:20;20.80;1.00
18717;DHT22;9487;50.892;6.906;2023-09-18T05:31:47;20.80;1.00
18717;DHT22;9487;50.892;6.906;2023-09-18T05:34:14;20.70;1.00
18717;DHT22;9487;50.892;6.906;2023-09-18T05:36:43;20.70;1.00
18717;DHT22;9487;50.892;6.906;2023-09-18T05:39:10;20.60;1.00
18717;DHT22;9487;50.892;6.906;2023-09-18T05:41:40;20.60;1.00
18717;DHT22;9487;50.892;6.906;2023-09-18T05:44:07;20.60;1.00
18717;DHT22;9487;50.892;6.906;2023-09-18T05:46:35;20.70;1.00
18717;DHT22;9487;50.892;6.906;2023-09-18T05:49:02;20.70;1.00
18717;DHT22;9487;50.892;6.906;2023-09-18T05:51:30;20.70;1.00
18717;DHT22;9487;50.892;6.906;2023-09-18T05:53:57;20.80;1.00
18717;DHT22;9487;50.892;6.906;2023-09-18T05:56:24;20.80;1.00
18717;DHT22;9487;50.892;6.906;2023-09-18T05:58:52;20.80;1.00
18717;DHT22;9487;50.892;6.906;2023-09-18T06:01:21;20.70;1.00
18717;DHT22;9487;50.892;6.906;2023-09-18T06:03:48;20.70;1.00
18717;DHT22;9487;50.892;6.906;2023-09-18T06:06:15;20.70;1.00
18717;DHT22;9487;50.892;6.906;2023-09-18T06:08:42;20.70;99.90
18717;DHT22;9487;50.892;6.906;2023-09-18T06:11:08;20.70;99.90
18717;DHT22;9487;50.892;6.906;2023-09-18T06:13:36;20.70;99.90
18717;DHT22;9487;50.892;6.906;2023-09-18T06:16:06;20.70;99.90
18717;DHT22;9487;50.892;6.906;2023-09-18T06:18:33;20.80;99.90
18717;DHT22;9487;50.892;6.906;2023-09-18T06:21:03;20.80;99.90
18717;DHT22;9487;50.892;6.906;2023-09-18T06:23:30;20.90;99.90
18717;DHT22;9487;50.892;6.906;2023-09-18T06:25:57;20.90;99.90
18717;DHT22;9487;50.892;6.906;2023-09-18T06:28:25;20.80;99.90
18717;DHT22;9487;50.892;6.906;2023-09-18T06:30:52;20.90;99.90
18717;DHT22;9487;50.892;6.906;2023-09-18T06:33:21;20.90;99.90
18717;DHT22;9487;50.892;6.906;2023-09-18T06:35:47;20.90;99.90
18717;DHT22;9487;50.892;6.906;2023-09-18T06:38:14;20.90;99.90
18717;DHT22;9487;50.892;6.906;2023-09-18T06:40:41;21.00;99.90
18717;DHT22;9487;50.892;6.906;2023-09-18T06:43:08;21.10;99.90
18717;DHT22;9487;50.892;6.906;2023-09-18T06:45:35;21.20;99.90
18717;DHT22;9487;50.892;6.906;2023-09-18T06:48:04;21.30;99.90
18717;DHT22;9487;50.892;6.906;2023-09-18T06:50:33;21.40;99.90
18717;DHT22;9487;50.892;6.906;2023-09-18T06:53:00;21.50;89.30
18717;DHT22;9487;50.892;6.906;2023-09-18T06:55:27;21.50;91.40
18717;DHT22;9487;50.892;6.906;2023-09-18T06:57:54;21.60;57.20
18717;DHT22;9487;50.892;6.906;2023-09-18T07:00:21;21.70;25.90
18717;DHT22;9487;50.892;6.906;2023-09-18T07:02:48;21.80;43.50
18717;DHT22;9487;50.892;6.906;2023-09-18T07:05:16;22.00;1.00
18717;DHT22;9487;50.892;6.906;2023-09-18T07:07:44;22.00;1.00
18717;DHT22;9487;50.892;6.906;2023-09-18T07:10:11;22.10;1.00
18717;DHT22;9487;50.892;6.906;2023-09-18T07:12:39;22.10;1.00
18717;DHT22;9487;50.892;6.906;2023-09-18T07:15:07;22.10;1.00
18717;DHT22;9487;50.892;6.906;2023-09-18T07:17:34;22.10;1.00
18717;DHT22;9487;50.892;6.906;2023-09-18T07:20:02;22.10;1.00
18717;DHT22;9487;50.892;6.906;2023-09-18T07:22:35;22.20;1.00
18717;DHT22;9487;50.892;6.906;2023-09-18T07:25:05;22.30;1.00
18717;DHT22;9487;50.892;6.906;2023-09-18T07:27:32;22.40;1.00
18717;DHT22;9487;50.892;6.906;2023-09-18T07:29:59;22.50;1.00
18717;DHT22;9487;50.892;6.906;2023-09-18T07:32:26;22.40;1.00
18717;DHT22;9487;50.892;6.906;2023-09-18T07:34:53;22.40;1.00
18717;DHT22;9487;50.892;6.906;2023-09-18T07:37:21;22.50;1.00
18717;DHT22;9487;50.892;6.906;2023-09-18T07:39:49;22.40;1.00
18717;DHT22;9487;50.892;6.906;2023-09-18T07:42:17;22.40;1.00
18717;DHT22;9487;50.892;6.906;2023-09-18T07:44:44;22.30;1.00
18717;DHT22;9487;50.892;6.906;2023-09-18T07:47:11;22.30;1.00
18717;DHT22;9487;50.892;6.906;2023-09-18T07:49:37;22.30;1.00
18717;DHT22;9487;50.892;6.906;2023-09-18T07:52:05;22.30;1.00
18717;DHT22;9487;50.892;6.906;2023-09-18T07:54:32;22.40;1.00
18717;DHT22;9487;50.892;6.906;2023-09-18T07:56:59;22.40;1.00
18717;DHT22;9487;50.892;6.906;2023-09-18T07:59:28;22.40;1.00
18717;DHT22;9487;50.892;6.906;2023-09-18T08:01:55;22.50;99.90
18717;DHT22;9487;50.892;6.906;2023-09-18T08:04:23;22.50;1.00
18717;DHT22;9487;50.892;6.906;2023-09-18T08:06:50;22.50;99.90
18717;DHT22;9487;50.892;6.906;2023-09-18T08:09:17;22.50;99.90
18717;DHT22;9487;50.892;6.906;2023-09-18T08:11:44;22.50;99.90
18717;DHT22;9487;50.892;6.906;2023-09-18T08:14:11;22.40;1.00
18717;DHT22;9487;50.892;6.906;2023-09-18T08:16:39;22.40;1.00
18717;DHT22;9487;50.892;6.906;2023-09-18T08:19:06;22.40;1.00
18717;DHT22;9487;50.892;6.906;2023-09-18T08:21:33;22.50;99.90
18717;DHT22;9487;50.892;6.906;2023-09-18T08:24:00;22.60;99.90
18717;DHT22;9487;50.892;6.906;2023-09-18T08:26:27;22.50;1.00
18717;DHT22;9487;50.892;6.906;2023-09-18T08:28:54;22.50;1.00
18717;DHT22;9487;50.892;6.906;2023-09-18T08:31:21;22.60;1.00
18717;DHT22;9487;50.892;6.906;2023-09-18T08:33:51;22.60;1.00
18717;DHT22;9487;50.892;6.906;2023-09-18T08:36:17;22.60;99.90
18717;DHT22;9487;50.892;6.906;2023-09-18T08:38:44;22.70;99.90
18717;DHT22;9487;50.892;6.906;2023-09-18T08:41:13;22.60;99.90
18717;DHT22;9487;50.892;6.906;2023-09-18T08:43:43;22.70;1.00
18717;DHT22;9487;50.892;6.906;2023-09-18T08:46:10;22.80;99.90
18717;DHT22;9487;50.892;6.906;2023-09-18T08:48:37;22.70;99.90
18717;DHT22;9487;50.892;6.906;2023-09-18T08:51:09;22.60;99.90
18717;DHT22;9487;50.892;6.906;2023-09-18T08:53:37;22.70;99.90
18717;DHT22;9487;50.892;6.906;2023-09-18T08:56:05;22.70;99.90
18717;DHT22;9487;50.892;6.906;2023-09-18T08:58:34;22.80;99.90
18717;DHT22;9487;50.892;6.906;2023-09-18T09:01:02;22.80;99.90
18717;DHT22;9487;50.892;6.906;2023-09-18T09:03:31;23.00;99.90
18717;DHT22;9487;50.892;6.906;2023-09-18T09:05:59;23.10;99.90
18717;DHT22;9487;50.892;6.906;2023-09-18T09:08:29;23.10;99.90
18717;DHT22;9487;50.892;6.906;2023-09-18T09:10:56;23.00;90.60
18717;DHT22;9487;50.892;6.906;2023-09-18T09:13:24;23.10;99.90
18717;DHT22;9487;50.892;6.906;2023-09-18T09:15:52;23.10;99.90
18717;DHT22;9487;50.892;6.906;2023-09-18T09:18:22;23.10;17.50
18717;DHT22;9487;50.892;6.906;2023-09-18T09:20:53;23.10;1.00
18717;DHT22;9487;50.892;6.906;2023-09-18T09:23:23;23.20;67.00
18717;DHT22;9487;50.892;6.906;2023-09-18T09:25:52;23.30;1.00
18717;DHT22;9487;50.892;6.906;2023-09-18T09:28:29;23.30;3.70
18717;DHT22;9487;50.892;6.906;2023-09-18T09:31:00;23.30;1.20
18717;DHT22;9487;50.892;6.906;2023-09-18T09:33:28;23.30;1.00
18717;DHT22;9487;50.892;6.906;2023-09-18T09:35:55;23.30;1.00
18717;DHT22;9487;50.892;6.906;2023-09-18T09:38:28;23.30;1.00
18717;DHT22;9487;50.892;6.906;2023-09-18T09:41:00;23.30;1.00
18717;DHT22;9487;50.892;6.906;2023-09-18T09:43:30;23.20;1.00
18717;DHT22;9487;50.892;6.906;2023-09-18T09:45:57;23.10;16.00
18717;DHT22;9487;50.892;6.906;2023-09-18T09:48:25;23.20;1.00
18717;DHT22;9487;50.892;6.906;2023-09-18T09:50:58;23.20;12.30
18717;DHT22;9487;50.892;6.906;2023-09-18T09:53:47;23.30;1.00
18717;DHT22;9487;50.892;6.906;2023-09-18T09:56:18;23.40;1.00
18717;DHT22;9487;50.892;6.906;2023-09-18T09:59:00;23.40;1.00
18717;DHT22;9487;50.892;6.906;2023-09-18T10:01:27;23.30;1.00
18717;DHT22;9487;50.892;6.906;2023-09-18T10:03:58;23.30;1.00
18717;DHT22;9487;50.892;6.906;2023-09-18T10:06:26;23.30;1.00
18717;DHT22;9487;50.892;6.906;2023-09-18T10:08:55;23.40;1.00
18717;DHT22;9487;50.892;6.906;2023-09-18T10:11:24;23.50;1.00
18717;DHT22;9487;50.892;6.906;2023-09-18T10:13:55;23.60;1.00
18717;DHT22;9487;50.892;6.906;2023-09-18T10:16:24;23.60;99.90
18717;DHT22;9487;50.892;6.906;2023-09-18T10:19:02;23.60;99.90
18717;DHT22;9487;50.892;6.906;2023-09-18T10:21:41;23.80;99.90
18717;DHT22;9487;50.892;6.906;2023-09-18T10:24:14;23.90;99.90
18717;DHT22;9487;50.892;6.906;2023-09-18T10:26:50;24.00;99.90
18717;DHT22;9487;50.892;6.906;2023-09-18T10:29:19;24.30;1.00
18717;DHT22;9487;50.892;6.906;2023-09-18T10:31:47;24.30;1.00
18717;DHT22;9487;50.892;6.906;2023-09-18T10:34:16;24.30;1.00
18717;DHT22;9487;50.892;6.906;2023-09-18T10:36:44;24.40;1.00
18717;DHT22;9487;50.892;6.906;2023-09-18T10:39:13;24.40;1.00
18717;DHT22;9487;50.892;6.906;2023-09-18T10:41:47;24.60;1.00
18717;DHT22;9487;50.892;6.906;2023-09-18T10:44:14;24.60;1.00
18717;DHT22;9487;50.892;6.906;2023-09-18T10:46:42;24.50;99.90
18717;DHT22;9487;50.892;6.906;2023-09-18T10:49:09;24.50;99.90
18717;DHT22;9487;50.892;6.906;2023-09-18T10:51:37;24.70;99.90
18717;DHT22;9487;50.892;6.906;2023-09-18T10:54:08;24.80;1.00
18717;DHT22;9487;50.892;6.906;2023-09-18T10:56:35;24.80;99.90
18717;DHT22;9487;50.892;6.906;2023-09-18T10:59:08;24.60;1.00
18717;DHT22;9487;50.892;6.906;2023-09-18T11:01:35;24.70;1.00
18717;DHT22;9487;50.892;6.906;2023-09-18T11:04:04;24.80;1.00
18717;DHT22;9487;50.892;6.906;2023-09-18T11:07:00;24.80;40.20
18717;DHT22;9487;50.892;6.906;2023-09-18T11:09:30;24.80;99.90
18717;DHT22;9487;50.892;6.906;2023-09-18T11:12:03;24.90;1.00
18717;DHT22;9487;50.892;6.906;2023-09-18T11:14:47;25.00;99.90
18717;DHT22;9487;50.892;6.906;2023-09-18T11:17:35;25.20;1.00
18717;DHT22;9487;50.892;6.906;2023-09-18T11:20:03;25.50;99.90
18717;DHT22;9487;50.892;6.906;2023-09-18T11:22:32;25.50;99.90
18717;DHT22;9487;50.892;6.906;2023-09-18T11:25:30;25.60;1.00
18717;DHT22;9487;50.892;6.906;2023-09-18T11:28:00;25.50;1.00
18717;DHT22;9487;50.892;6.906;2023-09-18T11:30:29;25.40;1.00
18717;DHT22;9487;50.892;6.906;2023-09-18T11:32:56;25.50;1.00
18717;DHT22;9487;50.892;6.906;2023-09-18T11:35:25;25.50;1.00
18717;DHT22;9487;50.892;6.906;2023-09-18T11:38:10;25.60;1.00
18717;DHT22;9487;50.892;6.906;2023-09-18T11:40:38;25.80;1.00
18717;DHT22;9487;50.892;6.906;2023-09-18T11:43:19;25.90;1.00
18717;DHT22;9487;50.892;6.906;2023-09-18T11:45:51;25.80;1.00
18717;DHT22;9487;50.892;6.906;2023-09-18T11:48:19;25.80;99.90
18717;DHT22;9487;50.892;6.906;2023-09-18T11:50:47;25.80;1.00
18717;DHT22;9487;50.892;6.906;2023-09-18T11:53:16;25.90;1.00
18717;DHT22;9487;50.892;6.906;2023-09-18T11:55:45;26.00;1.00
18717;DHT22;9487;50.892;6.906;2023-09-18T11:58:12;26.10;99.90
18717;DHT22;9487;50.892;6.906;2023-09-18T12:00:40;26.10;1.00
18717;DHT22;9487;50.892;6.906;2023-09-18T12:03:22;26.10;99.90
18717;DHT22;9487;50.892;6.906;2023-09-18T12:05:56;26.10;99.90
18717;DHT22;9487;50.892;6.906;2023-09-18T12:08:24;26.00;99.90
18717;DHT22;9487;50.892;6.906;2023-09-18T12:10:53;25.80;99.90
18717;DHT22;9487;50.892;6.906;2023-09-18T12:13:20;25.70;1.00
18717;DHT22;9487;50.892;6.906;2023-09-18T12:15:47;25.80;1.00
18717;DHT22;9487;50.892;6.906;2023-09-18T12:18:15;25.80;99.90
18717;DHT22;9487;50.892;6.906;2023-09-18T12:20:48;25.80;1.00
18717;DHT22;9487;50.892;6.906;2023-09-18T12:23:15;25.80;99.90
18717;DHT22;9487;50.892;6.906;2023-09-18T12:25:46;25.70;1.00
18717;DHT22;9487;50.892;6.906;2023-09-18T12:28:14;25.70;1.00
18717;DHT22;9487;50.892;6.906;2023-09-18T12:30:42;25.70;1.00
18717;DHT22;9487;50.892;6.906;2023-09-18T12:33:09;25.80;99.90
18717;DHT22;9487;50.892;6.906;2023-09-18T12:35:38;26.00;1.00
18717;DHT22;9487;50.892;6.906;2023-09-18T12:38:15;25.90;1.00
18717;DHT22;9487;50.892;6.906;2023-09-18T12:40:45;26.00;99.90
18717;DHT22;9487;50.892;6.906;2023-09-18T12:43:13;26.20;1.00
18717;DHT22;9487;50.892;6.906;2023-09-18T12:45:42;26.10;1.00
18717;DHT22;9487;50.892;6.906;2023-09-18T12:48:09;26.00;1.00
18717;DHT22;9487;50.892;6.906;2023-09-18T12:50:37;25.90;1.00
18717;DHT22;9487;50.892;6.906;2023-09-18T12:53:11;26.00;1.00
18717;DHT22;9487;50.892;6.906;2023-09-18T12:55:40;26.00;99.90
18717;DHT22;9487;50.892;6.906;2023-09-18T12:58:10;26.10;64.90
18717;DHT22;9487;50.892;6.906;2023-09-18T13:00:44;26.10;99.90
18717;DHT22;9487;50.892;6.906;2023-09-18T13:03:12;26.30;1.00
18717;DHT22;9487;50.892;6.906;2023-09-18T13:05:39;26.40;85.00
18717;DHT22;9487;50.892;6.906;2023-09-18T13:08:06;26.40;69.80
18717;DHT22;9487;50.892;6.906;2023-09-18T13:10:43;26.50;1.00
18717;DHT22;9487;50.892;6.906;2023-09-18T13:13:16;26.40;1.00
18717;DHT22;9487;50.892;6.906;2023-09-18T13:15:44;26.30;1.00
18717;DHT22;9487;50.892;6.906;2023-09-18T13:18:14;26.30;1.00
18717;DHT22;9487;50.892;6.906;2023-09-18T13:20:41;26.40;1.00
18717;DHT22;9487;50.892;6.906;2023-09-18T13:23:09;26.40;1.00
18717;DHT22;9487;50.892;6.906;2023-09-18T13:25:37;26.30;1.00
18717;DHT22;9487;50.892;6.906;2023-09-18T13:28:08;26.10;1.00
18717;DHT22;9487;50.892;6.906;2023-09-18T13:30:36;25.90;99.90
18717;DHT22;9487;50.892;6.906;2023-09-18T13:33:05;26.00;99.90
18717;DHT22;9487;50.892;6.906;2023-09-18T13:35:33;26.00;1.00
18717;DHT22;9487;50.892;6.906;2023-09-18T13:38:01;26.00;1.00
18717;DHT22;9487;50.892;6.906;2023-09-18T13:40:29;26.00;99.90
18717;DHT22;9487;50.892;6.906;2023-09-18T13:42:56;26.10;99.90
18717;DHT22;9487;50.892;6.906;2023-09-18T13:45:25;26.10;1.00
18717;DHT22;9487;50.892;6.906;2023-09-18T13:47:52;26.10;1.00
18717;DHT22;9487;50.892;6.906;2023-09-18T13:50:19;26.10;1.00
18717;DHT22;9487;50.892;6.906;2023-09-18T13:52:46;26.20;1.00
18717;DHT22;9487;50.892;6.906;2023-09-18T13:55:13;26.30;1.00
18717;DHT22;9487;50.892;6.906;2023-09-18T13:57:40;26.40;1.00
18717;DHT22;9487;50.892;6.906;2023-09-18T14:00:08;26.50;99.90
18717;DHT22;9487;50.892;6.906;2023-09-18T14:02:39;26.50;99.90
18717;DHT22;9487;50.892;6.906;2023-09-18T14:05:07;26.50;99.90
18717;DHT22;9487;50.892;6.906;2023-09-18T14:07:34;26.50;99.90
18717;DHT22;9487;50.892;6.906;2023-09-18T14:10:01;26.50;99.90
18717;DHT22;9487;50.892;6.906;2023-09-18T14:12:30;26.50;99.90
18717;DHT22;9487;50.892;6.906;2023-09-18T14:14:57;26.40;99.90
18717;DHT22;9487;50.892;6.906;2023-09-18T14:17:25;26.30;99.90
18717;DHT22;9487;50.892;6.906;2023-09-18T14:19:53;26.20;99.90
18717;DHT22;9487;50.892;6.906;2023-09-18T14:22:20;26.30;99.90
18717;DHT22;9487;50.892;6.906;2023-09-18T14:24:47;26.30;99.90
18717;DHT22;9487;50.892;6.906;2023-09-18T14:27:14;26.40;99.90
18717;DHT22;9487;50.892;6.906;2023-09-18T14:29:41;26.30;99.90
18717;DHT22;9487;50.892;6.906;2023-09-18T14:32:08;26.30;99.90
18717;DHT22;9487;50.892;6.906;2023-09-18T14:34:34;26.30;99.90
18717;DHT22;9487;50.892;6.906;2023-09-18T14:37:03;26.30;99.90
18717;DHT22;9487;50.892;6.906;2023-09-18T14:39:30;26.20;1.00
18717;DHT22;9487;50.892;6.906;2023-09-18T14:41:58;26.10;1.00
18717;DHT22;9487;50.892;6.906;2023-09-18T14:44:25;26.20;1.00
18717;DHT22;9487;50.892;6.906;2023-09-18T14:46:52;26.40;99.90
18717;DHT22;9487;50.892;6.906;2023-09-18T14:49:19;26.60;99.90
18717;DHT22;9487;50.892;6.906;2023-09-18T14:51:46;26.60;99.90
18717;DHT22;9487;50.892;6.906;2023-09-18T14:54:16;26.40;99.90
18717;DHT22;9487;50.892;6.906;2023-09-18T14:56:43;26.20;99.90
18717;DHT22;9487;50.892;6.906;2023-09-18T14:59:11;26.10;99.90
18717;DHT22;9487;50.892;6.906;2023-09-18T15:01:38;26.00;99.90
18717;DHT22;9487;50.892;6.906;2023-09-18T15:04:08;26.00;99.90
18717;DHT22;9487;50.892;6.906;2023-09-18T15:06:35;26.10;99.90
18717;DHT22;9487;50.892;6.906;2023-09-18T15:09:02;26.20;99.90
18717;DHT22;9487;50.892;6.906;2023-09-18T15:11:31;26.40;99.90
18717;DHT22;9487;50.892;6.906;2023-09-18T15:13:57;26.60;99.90
18717;DHT22;9487;50.892;6.906;2023-09-18T15:16:24;26.70;99.90
18717;DHT22;9487;50.892;6.906;2023-09-18T15:18:52;26.90;56.40
18717;DHT22;9487;50.892;6.906;2023-09-18T15:21:19;26.80;1.00
18717;DHT22;9487;50.892;6.906;2023-09-18T15:23:46;26.80;1.00
18717;DHT22;9487;50.892;6.906;2023-09-18T15:26:15;26.80;1.00
18717;DHT22;9487;50.892;6.906;2023-09-18T15:28:44;26.70;1.00
18717;DHT22;9487;50.892;6.906;2023-09-18T15:31:11;26.60;10.40
18717;DHT22;9487;50.892;6.906;2023-09-18T15:33:38;26.70;1.00
18717;DHT22;9487;50.892;6.906;2023-09-18T15:36:07;26.70;1.00
18717;DHT22;9487;50.892;6.906;2023-09-18T15:38:34;26.70;1.00
18717;DHT22;9487;50.892;6.906;2023-09-18T15:41:01;26.80;1.00
18717;DHT22;9487;50.892;6.906;2023-09-18T15:43:27;26.80;1.00
18717;DHT22;9487;50.892;6.906;2023-09-18T15:45:57;26.60;92.60
18717;DHT22;9487;50.892;6.906;2023-09-18T15:48:24;26.50;94.60
18717;DHT22;9487;50.892;6.906;2023-09-18T15:50:52;26.30;7.40
18717;DHT22;9487;50.892;6.906;2023-09-18T15:53:19;26.10;15.10
18717;DHT22;9487;50.892;6.906;2023-09-18T15:55:46;25.90;1.00
18717;DHT22;9487;50.892;6.906;2023-09-18T15:58:13;25.90;1.00
18717;DHT22;9487;50.892;6.906;2023-09-18T16:00:40;25.80;1.00